Time;durP1;ratioP1;P1;durP2;ratioP2;P2;SDS_P1;SDS_P2;PMS_P1;PMS_P2;Temp;Humidity;BMP_temperature;BMP_pressure;BME280_temperature;BME280_humidity;BME280_pressure;Samples;Min_cycle;Max_cycle;Signal;HPM_P1;HPM_P2
2023/12/11 00:02:58;;;;;;;65.17;18.77;;;1.00;99.90;;;-1.12;100.00;99986.84;10448980;27;96657;-81
2023/12/11 00:08:02;;;;;;;73.33;19.97;;;1.00;99.90;;;-1.17;100.00;99986.28;10432385;27;98365;-81
2023/12/11 00:13:06;;;;;;;65.10;19.33;;;1.00;99.90;;;-1.25;100.00;99991.16;10471559;27;96795;-81
2023/12/11 00:18:09;;;;;;;95.47;21.53;;;0.90;99.90;;;-1.25;100.00;99978.13;10458914;27;96559;-81
2023/12/11 00:23:13;;;;;;;75.37;19.47;;;0.90;99.90;;;-1.23;100.00;99976.25;10457541;27;100290;-81
2023/12/11 00:28:17;;;;;;;83.57;19.17;;;0.90;99.90;;;-1.23;100.00;99960.59;10439538;27;96521;-81
2023/12/11 00:33:20;;;;;;;64.63;17.27;;;0.90;99.90;;;-1.20;100.00;99956.03;10452697;27;96620;-81
2023/12/11 00:38:24;;;;;;;81.60;18.40;;;0.90;99.90;;;-1.18;100.00;99955.94;10422385;27;98549;-80
2023/12/11 00:43:27;;;;;;;92.93;18.73;;;1.00;99.90;;;-1.14;100.00;99937.41;10450736;27;96625;-81
2023/12/11 00:48:49;;;;;;;86.80;18.57;;;1.00;99.90;;;-1.17;100.00;99936.75;10459240;27;97631;-80
2023/12/11 00:53:53;;;;;;;61.20;17.40;;;1.00;99.90;;;-1.18;100.00;99937.69;10459741;27;96658;-80
2023/12/11 00:58:56;;;;;;;85.00;20.37;;;1.00;99.90;;;-1.22;100.00;99928.38;10491102;27;96457;-81
2023/12/11 01:04:00;;;;;;;64.33;16.60;;;1.00;99.90;;;-1.20;100.00;99931.72;10444368;27;96565;-80
2023/12/11 01:09:04;;;;;;;73.93;15.57;;;0.90;99.90;;;-1.19;100.00;99928.19;10474603;27;96908;-81
2023/12/11 01:14:07;;;;;;;91.13;15.70;;;1.00;99.90;;;-1.22;100.00;99929.22;10456732;27;96462;-81
2023/12/11 01:19:12;;;;;;;94.63;17.37;;;0.90;99.90;;;-1.21;100.00;99933.50;10467465;27;96505;-81
2023/12/11 01:24:16;;;;;;;83.37;18.73;;;1.00;99.90;;;-1.18;100.00;99938.53;10453633;27;97341;-81
2023/12/11 01:29:19;;;;;;;105.57;18.77;;;1.00;99.90;;;-1.17;100.00;99934.13;10491266;27;96913;-81
2023/12/11 01:34:23;;;;;;;69.63;12.90;;;1.00;99.90;;;-1.13;100.00;99917.38;10435714;27;98596;-81
2023/12/11 01:39:26;;;;;;;73.37;11.67;;;1.00;99.90;;;-1.13;100.00;99906.94;10465272;27;96555;-81
2023/12/11 01:44:30;;;;;;;72.60;10.40;;;1.00;99.90;;;-1.11;100.00;99903.28;10459763;27;96800;-81
2023/12/11 01:49:35;;;;;;;72.80;9.53;;;1.00;99.90;;;-1.13;100.00;99899.13;10453849;27;97020;-81
2023/12/11 01:54:39;;;;;;;79.43;11.60;;;1.10;99.90;;;-1.12;100.00;99892.97;10437295;27;96800;-80
2023/12/11 01:59:43;;;;;;;87.97;11.43;;;1.10;99.90;;;-1.08;100.00;99884.84;10451034;27;98120;-81
2023/12/11 02:04:53;;;;;;;73.87;9.10;;;1.10;99.90;;;-1.04;100.00;99887.22;10410546;27;97235;-81
2023/12/11 02:09:57;;;;;;;71.67;13.07;;;1.10;99.90;;;-1.04;100.00;99893.28;10446723;27;96643;-81
2023/12/11 02:15:02;;;;;;;85.27;11.67;;;1.20;99.90;;;-1.01;100.00;99884.44;10473112;27;96691;-81
2023/12/11 02:20:06;;;;;;;82.97;12.47;;;1.20;99.90;;;-1.02;100.00;99878.38;10451894;27;97021;-81
2023/12/11 02:25:11;;;;;;;51.37;9.93;;;1.20;99.90;;;-0.99;100.00;99879.94;10419016;27;96623;-81
2023/12/11 02:30:15;;;;;;;67.23;10.73;;;1.20;99.90;;;-1.02;100.00;99875.78;10393559;27;98247;-81
2023/12/11 02:35:19;;;;;;;66.13;10.47;;;1.20;99.90;;;-0.99;100.00;99878.16;10448605;27;98836;-81
2023/12/11 02:40:22;;;;;;;85.33;10.00;;;1.20;99.90;;;-0.99;100.00;99872.94;10424532;27;96773;-81
2023/12/11 02:45:26;;;;;;;73.27;11.07;;;1.20;99.90;;;-0.97;100.00;99862.41;10438464;27;96631;-81
2023/12/11 02:50:32;;;;;;;71.60;10.93;;;1.20;99.90;;;-0.95;100.00;99848.34;10454132;27;96642;-81
2023/12/11 02:55:36;;;;;;;74.20;12.53;;;1.20;99.90;;;-0.96;100.00;99845.81;10478566;27;96462;-82
2023/12/11 03:00:39;;;;;;;71.67;10.50;;;1.20;99.90;;;-0.95;100.00;99848.34;10472997;27;96457;-81
2023/12/11 03:05:43;;;;;;;91.13;11.47;;;1.20;99.90;;;-0.95;100.00;99844.91;10428757;27;96654;-81
2023/12/11 03:10:46;;;;;;;66.53;11.90;;;1.20;99.90;;;-0.95;100.00;99831.84;10425085;27;96654;-82
2023/12/11 03:15:52;;;;;;;65.23;11.50;;;1.30;99.90;;;-1.00;100.00;99819.13;10440876;27;96666;-82
2023/12/11 03:20:56;;;;;;;46.07;12.50;;;1.20;99.90;;;-0.99;100.00;99827.78;10454231;27;96561;-82
2023/12/11 03:26:00;;;;;;;39.63;10.43;;;1.20;99.90;;;-1.00;100.00;99839.97;10466811;27;98528;-81
2023/12/11 03:31:04;;;;;;;49.83;9.97;;;1.20;99.90;;;-0.98;100.00;99843.31;10457510;27;96707;-81
2023/12/11 03:36:08;;;;;;;60.13;11.37;;;1.20;99.90;;;-0.95;100.00;99850.13;10485185;27;99802;-81
2023/12/11 03:41:11;;;;;;;65.20;13.97;;;1.20;99.90;;;-0.94;100.00;99851.78;10433601;27;96994;-81
2023/12/11 03:46:15;;;;;;;74.63;11.90;;;1.30;99.90;;;-0.93;100.00;99836.03;10471736;27;96571;-81
2023/12/11 03:51:19;;;;;;;72.93;12.03;;;1.30;99.90;;;-0.95;100.00;99850.94;10459091;27;96627;-81
2023/12/11 03:56:23;;;;;;;77.87;11.97;;;1.30;99.90;;;-0.94;100.00;99870.03;10469900;27;97549;-81
2023/12/11 04:01:27;;;;;;;55.23;10.47;;;1.20;99.90;;;-0.97;100.00;99838.94;10450894;27;96560;-81
2023/12/11 04:06:31;;;;;;;62.83;12.73;;;1.30;99.90;;;-0.95;100.00;99839.69;10452481;27;97543;-81
2023/12/11 04:11:36;;;;;;;42.13;11.30;;;1.20;99.90;;;-0.94;100.00;99834.34;10452227;27;96585;-81
2023/12/11 04:16:42;;;;;;;59.00;10.73;;;1.30;99.90;;;-0.93;100.00;99835.19;10472129;27;96941;-81
2023/12/11 04:21:45;;;;;;;65.93;11.47;;;1.30;99.90;;;-0.93;100.00;99835.19;10483552;27;96681;-82
2023/12/11 04:26:49;;;;;;;57.80;10.77;;;1.30;99.90;;;-0.93;100.00;99838.63;10440668;27;96587;-82
2023/12/11 04:31:53;;;;;;;86.90;13.20;;;1.30;99.90;;;-0.94;100.00;99815.25;10405785;27;97941;-82
2023/12/11 04:36:57;;;;;;;93.73;14.17;;;1.30;99.90;;;-0.91;100.00;99815.03;10466431;27;96561;-82
2023/12/11 04:42:00;;;;;;;87.00;12.40;;;1.30;99.90;;;-0.91;100.00;99818.47;10445829;27;96660;-82
2023/12/11 04:47:04;;;;;;;70.07;11.53;;;1.30;99.90;;;-0.91;100.00;99828.91;10460933;27;100551;-82
2023/12/11 04:52:08;;;;;;;80.50;12.33;;;1.30;99.90;;;-0.91;100.00;99828.91;10481715;27;96626;-82
2023/12/11 04:57:11;;;;;;;105.53;13.10;;;1.30;99.90;;;-0.91;100.00;99846.34;10427797;27;98031;-82
2023/12/11 05:02:15;;;;;;;78.70;13.63;;;1.30;99.90;;;-0.93;100.00;99848.22;10419323;27;98581;-82
2023/12/11 05:07:18;;;;;;;79.60;13.13;;;1.30;99.90;;;-0.91;100.00;99844.56;10425174;27;98806;-82
2023/12/11 05:12:22;;;;;;;96.03;14.80;;;1.30;99.90;;;-0.91;100.00;99841.97;10480237;27;98186;-82
2023/12/11 05:17:25;;;;;;;93.40;15.00;;;1.30;99.90;;;-0.95;100.00;99827.47;10458006;27;96885;-82
2023/12/11 05:22:29;;;;;;;80.87;12.63;;;1.30;99.90;;;-0.95;100.00;99830.09;10477501;27;96555;-81
2023/12/11 05:27:33;;;;;;;86.13;12.30;;;1.20;99.90;;;-0.95;100.00;99808.38;10445133;27;98925;-82
2023/12/11 05:32:38;;;;;;;87.27;15.20;;;1.20;99.90;;;-0.96;100.00;99815.38;10441379;27;98374;-82
2023/12/11 05:37:42;;;;;;;88.53;13.43;;;1.20;99.90;;;-0.95;100.00;99814.44;10420322;27;97300;-82
2023/12/11 05:42:45;;;;;;;82.70;13.37;;;1.20;99.90;;;-0.96;100.00;99798.84;10436124;27;98714;-82
2023/12/11 05:47:49;;;;;;;83.40;11.87;;;1.20;99.90;;;-0.92;100.00;99779.47;10417627;27;96614;-82
2023/12/11 05:52:52;;;;;;;77.90;11.43;;;1.20;99.90;;;-0.94;100.00;99792.63;10443842;27;98289;-82
2023/12/11 05:57:56;;;;;;;67.90;13.67;;;1.30;99.90;;;-0.98;100.00;99848.53;10424127;27;96755;-83
2023/12/11 06:03:00;;;;;;;85.10;15.40;;;1.20;99.90;;;-0.98;100.00;99827.66;10451901;27;96919;-83
2023/12/11 06:08:05;;;;;;;76.37;12.20;;;1.20;99.90;;;-0.99;100.00;99822.56;10468904;27;97452;-83
2023/12/11 06:13:08;;;;;;;82.97;12.77;;;1.20;99.90;;;-0.97;100.00;99803.25;10444860;27;96918;-83
2023/12/11 06:18:12;;;;;;;81.63;15.47;;;1.10;99.90;;;-0.95;100.00;99829.25;10452920;27;96609;-83
2023/12/11 06:23:15;;;;;;;306.87;81.07;;;1.20;99.90;;;-0.92;100.00;99827.25;10487743;27;96699;-82
2023/12/11 06:28:19;;;;;;;77.90;18.67;;;1.20;99.90;;;-0.90;100.00;99830.59;10456236;27;96786;-82
2023/12/11 06:33:23;;;;;;;82.67;17.67;;;1.30;99.90;;;-0.87;100.00;99819.94;10453655;27;97648;-82
2023/12/11 06:38:27;;;;;;;86.93;14.83;;;1.30;99.90;;;-0.88;100.00;99814.84;10472625;27;98165;-82
2023/12/11 06:43:30;;;;;;;68.00;13.00;;;1.30;99.90;;;-0.84;100.00;99782.38;10459245;27;96814;-81
2023/12/11 06:48:33;;;;;;;66.10;14.67;;;1.30;99.90;;;-0.82;100.00;99767.47;10406772;27;97531;-82
2023/12/11 06:53:37;;;;;;;42.47;13.10;;;1.30;99.90;;;-0.77;100.00;99762.78;10412755;28;96477;-81
2023/12/11 06:58:40;;;;;;;194.10;36.43;;;1.40;99.90;;;-0.76;100.00;99738.34;10431934;27;97027;-81
2023/12/11 07:03:47;;;;;;;126.47;29.13;;;1.50;99.90;;;-0.71;100.00;99751.91;10455048;27;96555;-81
2023/12/11 07:08:51;;;;;;;102.30;20.33;;;1.50;99.90;;;-0.75;100.00;99767.88;10458324;27;96436;-81
2023/12/11 07:13:55;;;;;;;59.90;16.13;;;1.40;99.90;;;-0.77;100.00;99788.03;10445305;27;96483;-81
2023/12/11 07:18:59;;;;;;;60.07;15.40;;;1.40;99.90;;;-0.76;100.00;99784.47;10452939;27;96555;-81
2023/12/11 07:24:02;;;;;;;52.90;13.80;;;1.40;99.90;;;-0.71;100.00;99803.25;10450987;27;96482;-81
2023/12/11 07:29:09;;;;;;;46.77;14.30;;;1.40;99.90;;;-0.68;100.00;99816.06;10482564;27;96552;-81
2023/12/11 07:34:13;;;;;;;47.80;13.57;;;1.50;99.90;;;-0.63;100.00;99838.31;10467487;27;96498;-81
2023/12/11 07:39:17;;;;;;;44.23;14.43;;;1.50;99.90;;;-0.58;100.00;99828.41;10450173;27;96574;-81
2023/12/11 07:44:20;;;;;;;70.70;16.07;;;1.60;99.90;;;-0.52;100.00;99811.47;10444098;27;96674;-81
2023/12/11 07:49:24;;;;;;;71.07;13.47;;;1.70;99.90;;;-0.47;100.00;99793.72;10491952;27;97074;-81
2023/12/11 07:54:28;;;;;;;57.20;16.23;;;1.70;99.90;;;-0.41;100.00;99795.06;10459827;27;96569;-80
2023/12/11 07:59:31;;;;;;;351.77;43.60;;;1.80;99.90;;;-0.34;100.00;99778.03;10466400;27;96594;-80
2023/12/11 08:04:38;;;;;;;227.13;35.47;;;1.90;99.90;;;-0.34;100.00;99744.09;10463460;27;96559;-80
2023/12/11 08:09:43;;;;;;;79.63;20.40;;;1.90;99.90;;;-0.32;100.00;99769.13;10463430;27;96615;-80
2023/12/11 08:14:46;;;;;;;68.23;15.40;;;1.90;99.90;;;-0.28;100.00;99754.09;10467317;27;96549;-80
2023/12/11 08:19:51;;;;;;;231.83;34.10;;;2.00;99.90;;;-0.27;100.00;99733.09;10441324;27;96658;-80
2023/12/11 08:24:55;;;;;;;129.00;23.50;;;2.00;99.90;;;-0.25;100.00;99716.47;10480528;27;96611;-80
2023/12/11 08:29:59;;;;;;;95.63;21.33;;;2.00;99.90;;;-0.22;100.00;99716.25;10471637;27;96709;-80
2023/12/11 08:35:03;;;;;;;136.57;26.47;;;2.00;99.90;;;-0.21;100.00;99713.53;10462119;27;96495;-82
2023/12/11 08:40:08;;;;;;;90.50;19.57;;;2.10;99.90;;;-0.17;100.00;99733.25;10416297;28;96487;-82
2023/12/11 08:45:12;;;;;;;112.43;24.23;;;2.10;99.90;;;-0.14;100.00;99732.19;10471562;27;96741;-82
2023/12/11 08:50:16;;;;;;;61.20;17.87;;;2.10;99.90;;;-0.11;100.00;99735.44;10437557;27;97069;-82
2023/12/11 08:55:21;;;;;;;81.33;18.67;;;2.10;99.90;;;-0.10;100.00;99736.25;10447997;27;96472;-82
2023/12/11 09:00:25;;;;;;;73.23;17.03;;;2.10;99.90;;;-0.01;100.00;99738.19;10444692;27;96988;-82
2023/12/11 09:05:29;;;;;;;65.67;21.67;;;2.20;99.90;;;0.02;100.00;99724.09;10414977;28;97059;-83
2023/12/11 09:10:35;;;;;;;58.47;17.70;;;2.30;99.90;;;-0.01;100.00;99719.91;10455480;27;96455;-83
2023/12/11 09:15:39;;;;;;;66.20;18.67;;;2.30;99.90;;;0.05;100.00;99709.00;10463416;27;97079;-83
2023/12/11 09:20:43;;;;;;;55.00;15.83;;;2.30;99.90;;;0.08;100.00;99719.25;10462064;27;98092;-83
2023/12/11 09:25:47;;;;;;;47.07;11.70;;;2.30;99.90;;;0.14;100.00;99713.56;10456737;27;96551;-83
2023/12/11 09:30:52;;;;;;;42.77;12.17;;;2.40;99.90;;;0.19;100.00;99711.44;10470202;27;96380;-83
2023/12/11 09:35:56;;;;;;;73.10;21.57;;;2.40;99.90;;;0.25;100.00;99710.16;10458047;27;96568;-82
2023/12/11 09:40:59;;;;;;;49.20;15.03;;;2.50;99.90;;;0.32;100.00;99707.94;10457404;27;97043;-83
2023/12/11 09:46:11;;;;;;;46.63;14.77;;;2.60;99.90;;;0.38;100.00;99699.63;10456800;27;97866;-83
2023/12/11 09:51:17;;;;;;;64.57;15.00;;;2.60;99.90;;;0.41;100.00;99688.91;10456267;27;96586;-83
2023/12/11 09:56:20;;;;;;;48.37;13.17;;;2.60;99.90;;;0.45;100.00;99696.41;10446695;27;96483;-83
2023/12/11 10:01:24;;;;;;;34.03;11.97;;;2.70;99.90;;;0.49;100.00;99691.81;10435559;27;96746;-83
2023/12/11 10:06:28;;;;;;;38.30;11.97;;;2.70;99.90;;;0.56;100.00;99681.72;10486434;27;96600;-83
2023/12/11 10:11:33;;;;;;;46.47;14.80;;;2.80;99.90;;;0.61;100.00;99690.88;10448978;27;96759;-83
2023/12/11 10:16:37;;;;;;;34.90;12.67;;;2.90;99.90;;;0.72;100.00;99684.81;10436634;27;96641;-83
2023/12/11 10:21:41;;;;;;;36.57;12.50;;;2.90;99.90;;;0.76;100.00;99660.91;10458884;27;96401;-83
2023/12/11 10:26:47;;;;;;;35.13;13.53;;;3.00;99.90;;;0.81;100.00;99668.41;10455594;27;96547;-83
2023/12/11 10:31:53;;;;;;;44.57;14.17;;;3.10;99.90;;;0.78;100.00;99643.34;10465884;27;96465;-83
2023/12/11 10:36:57;;;;;;;44.93;15.47;;;3.10;99.90;;;0.85;100.00;99653.31;10466917;27;96568;-83
2023/12/11 10:42:16;;;;;;;44.60;12.30;;;3.20;99.90;;;0.91;100.00;99645.84;10480154;27;97888;-83
2023/12/11 10:47:22;;;;;;;65.00;20.20;;;3.20;99.90;;;0.97;100.00;99639.28;10430453;27;96475;-83
2023/12/11 10:52:27;;;;;;;42.67;14.63;;;3.20;99.90;;;1.03;100.00;99617.88;10418689;27;97956;-83
2023/12/11 10:57:31;;;;;;;78.50;22.33;;;3.30;99.90;;;1.09;100.00;99612.16;10444759;27;96504;-83
2023/12/11 11:02:46;;;;;;;63.83;22.90;;;3.30;99.90;;;1.09;100.00;99624.41;10462840;27;96548;-83
2023/12/11 11:08:32;;;;;;;52.07;17.27;;;3.30;99.90;;;1.15;100.00;99629.16;10461299;27;96538;-83
2023/12/11 11:14:14;;;;;;;36.97;14.63;;;3.30;99.90;;;1.16;100.00;99610.72;10443975;27;96707;-83
2023/12/11 11:19:17;;;;;;;45.00;13.63;;;3.40;99.90;;;1.20;100.00;99596.44;10464314;27;96506;-83
2023/12/11 11:24:28;;;;;;;172.57;30.27;;;3.40;99.90;;;1.24;100.00;99587.34;10469072;27;96429;-83
2023/12/11 11:29:44;;;;;;;72.53;19.05;;;3.50;99.90;;;1.23;100.00;99572.63;10489332;27;96544;-83
2023/12/11 11:34:48;;;;;;;274.70;44.13;;;3.50;99.90;;;1.26;100.00;99572.38;10497854;27;97023;-83
2023/12/11 11:40:07;;;;;;;60.53;17.07;;;3.50;99.90;;;1.32;100.00;99557.97;10474805;27;96554;-83
2023/12/11 11:45:11;;;;;;;47.30;14.13;;;3.50;99.90;;;1.35;100.00;99539.38;10465511;27;96587;-83
2023/12/11 11:50:16;;;;;;;42.73;15.47;;;3.60;99.90;;;1.37;100.00;99549.72;10444804;27;96822;-82
2023/12/11 11:55:27;;;;;;;30.80;13.90;;;3.60;99.90;;;1.42;100.00;99537.09;10463833;27;96585;-83
2023/12/11 12:00:31;;;;;;;37.63;12.38;;;3.60;99.90;;;1.43;100.00;99546.59;10442270;27;96898;-82
2023/12/11 12:05:52;;;;;;;60.60;18.63;;;3.60;99.90;;;1.53;100.00;99558.00;10479752;27;96541;-82
2023/12/11 12:10:59;;;;;;;36.78;13.45;;;3.70;99.90;;;1.53;100.00;99556.19;10474355;27;96569;-82
2023/12/11 12:16:03;;;;;;;30.10;13.50;;;3.70;99.90;;;1.53;100.00;99566.69;10464889;27;96466;-82
2023/12/11 12:21:08;;;;;;;32.30;12.73;;;3.70;99.90;;;1.53;100.00;99571.09;10482455;27;96547;-82
2023/12/11 12:26:12;;;;;;;38.90;13.90;;;3.60;99.90;;;1.44;100.00;99562.22;10468065;27;97991;-83
2023/12/11 12:31:16;;;;;;;36.70;13.57;;;3.60;99.90;;;1.54;100.00;99560.47;10441307;27;96548;-82
2023/12/11 12:36:20;;;;;;;61.30;22.63;;;3.60;99.90;;;1.54;100.00;99559.66;10442130;27;97004;-83
2023/12/11 12:41:23;;;;;;;37.50;15.63;;;3.60;99.90;;;1.56;100.00;99574.28;10475729;27;97603;-82
2023/12/11 12:46:40;;;;;;;42.00;18.83;;;3.70;99.90;;;1.60;100.00;99572.25;10459356;27;96544;-83
2023/12/11 12:51:52;;;;;;;45.83;19.17;;;3.70;99.90;;;1.64;100.00;99570.22;10470089;27;97403;-82
2023/12/11 12:56:58;;;;;;;39.73;12.87;;;3.70;99.90;;;1.66;100.00;99553.41;10470615;27;97755;-83
2023/12/11 13:02:09;;;;;;;31.13;14.30;;;3.80;99.90;;;1.66;100.00;99540.31;10454586;27;96509;-83
2023/12/11 13:07:12;;;;;;;46.57;16.40;;;3.80;99.90;;;1.68;100.00;99521.84;10501490;27;96594;-83
2023/12/11 13:12:18;;;;;;;36.07;14.87;;;3.80;99.90;;;1.67;100.00;99535.91;10479742;27;96564;-82
2023/12/11 13:17:21;;;;;;;38.87;15.33;;;3.80;99.90;;;1.64;100.00;99547.47;10483328;27;96482;-82
2023/12/11 13:22:25;;;;;;;31.97;14.00;;;3.80;99.90;;;1.57;100.00;99556.78;10457058;27;96359;-83
2023/12/11 13:27:29;;;;;;;36.83;15.40;;;3.70;99.90;;;1.47;100.00;99574.22;10458890;27;96489;-82
2023/12/11 13:32:34;;;;;;;31.93;13.73;;;3.60;99.90;;;1.36;100.00;99576.84;10415987;27;96930;-82
2023/12/11 13:37:38;;;;;;;41.07;17.20;;;3.50;99.90;;;1.32;100.00;99565.81;10415582;28;96476;-83
2023/12/11 13:42:41;;;;;;;42.57;16.83;;;3.40;99.90;;;1.25;100.00;99567.25;10452133;27;96535;-83
2023/12/11 13:47:46;;;;;;;41.03;16.93;;;3.30;99.90;;;1.21;100.00;99574.53;10475349;27;96468;-82
2023/12/11 13:52:49;;;;;;;42.60;16.33;;;3.20;99.90;;;1.17;100.00;99559.19;10458193;27;96542;-82
2023/12/11 13:57:53;;;;;;;38.60;15.83;;;3.30;99.90;;;1.09;100.00;99559.00;10441263;27;96421;-82
2023/12/11 14:02:57;;;;;;;36.57;14.53;;;3.10;99.90;;;1.00;100.00;99531.75;10414703;27;96506;-82
2023/12/11 14:08:07;;;;;;;42.93;17.87;;;3.00;99.90;;;0.96;100.00;99546.91;10415357;28;96518;-82
2023/12/11 14:13:14;;;;;;;43.57;15.53;;;3.00;99.90;;;0.96;100.00;99546.03;10447841;27;97114;-83
2023/12/11 14:18:18;;;;;;;52.77;19.50;;;3.00;99.90;;;0.92;100.00;99547.25;10440537;27;96462;-83
2023/12/11 14:23:22;;;;;;;56.93;21.50;;;3.00;99.90;;;0.94;100.00;99553.19;10456880;27;96499;-83
2023/12/11 14:28:26;;;;;;;75.53;29.77;;;3.10;99.90;;;0.98;100.00;99538.91;10458902;27;96568;-83
2023/12/11 14:33:29;;;;;;;64.00;22.73;;;3.10;99.90;;;1.00;100.00;99547.47;10423282;27;96598;-82
2023/12/11 14:38:33;;;;;;;104.30;37.67;;;3.10;99.90;;;0.98;100.00;99536.28;10464138;27;96466;-82
2023/12/11 14:43:36;;;;;;;93.37;35.00;;;3.20;99.90;;;1.00;100.00;99529.16;10447330;27;96549;-82
2023/12/11 14:48:40;;;;;;;80.67;28.87;;;3.20;99.90;;;0.97;100.00;99514.53;10476716;27;96514;-82
2023/12/11 14:53:44;;;;;;;82.20;31.60;;;3.20;99.90;;;0.98;100.00;99505.72;10438981;27;97537;-82
2023/12/11 14:58:48;;;;;;;47.40;21.73;;;3.20;99.90;;;0.91;100.00;99519.44;10466277;27;98042;-82
2023/12/11 15:03:52;;;;;;;70.10;24.30;;;3.10;99.90;;;0.85;100.00;99505.06;10450364;27;96557;-82
2023/12/11 15:09:00;;;;;;;56.40;21.80;;;3.00;99.90;;;0.82;100.00;99509.69;10479581;27;96577;-82
2023/12/11 15:14:04;;;;;;;42.53;18.47;;;2.90;99.90;;;0.74;100.00;99534.69;10479440;27;96557;-82
2023/12/11 15:19:09;;;;;;;72.30;27.57;;;2.90;99.90;;;0.77;100.00;99538.81;10471966;27;96507;-83
2023/12/11 15:24:13;;;;;;;64.93;25.13;;;2.90;99.90;;;0.77;100.00;99531.81;10461346;27;96579;-82
2023/12/11 15:29:17;;;;;;;46.30;17.30;;;2.90;99.90;;;0.75;100.00;99525.88;10472494;27;96841;-82
2023/12/11 15:34:20;;;;;;;52.20;17.33;;;2.90;99.90;;;0.74;100.00;99534.69;10462121;27;96520;-82
2023/12/11 15:39:24;;;;;;;49.10;17.43;;;2.80;99.90;;;0.72;100.00;99533.13;10471931;27;96570;-82
2023/12/11 15:44:28;;;;;;;40.53;16.57;;;2.80;99.90;;;0.70;100.00;99527.19;10464584;27;96628;-82
2023/12/11 15:49:35;;;;;;;56.50;21.00;;;2.80;99.90;;;0.70;100.00;99538.47;10480896;27;96634;-82
2023/12/11 15:54:43;;;;;;;43.50;16.77;;;2.80;99.90;;;0.68;100.00;99526.50;10459824;27;96542;-82
2023/12/11 15:59:47;;;;;;;51.37;19.10;;;2.80;99.90;;;0.67;100.00;99533.50;10458555;27;96589;-82
2023/12/11 16:04:53;;;;;;;60.60;21.83;;;2.80;99.90;;;0.66;100.00;99526.63;10467276;27;96559;-82
2023/12/11 16:09:56;;;;;;;53.00;18.90;;;2.70;99.90;;;0.62;100.00;99532.22;10482315;27;96488;-82
2023/12/11 16:15:00;;;;;;;47.00;20.00;;;2.70;99.90;;;0.60;100.00;99514.03;10456911;27;96573;-82
2023/12/11 16:20:04;;;;;;;53.93;17.87;;;2.70;99.90;;;0.60;100.00;99506.19;10455996;27;97187;-82
2023/12/11 16:25:10;;;;;;;46.83;16.17;;;2.70;99.90;;;0.55;100.00;99492.66;10446027;27;97661;-82
2023/12/11 16:30:14;;;;;;;45.13;15.07;;;2.70;99.90;;;0.60;100.00;99484.41;10449672;27;96607;-82
2023/12/11 16:35:18;;;;;;;59.67;19.07;;;2.70;99.90;;;0.58;100.00;99500.22;10469468;27;96690;-82
2023/12/11 16:40:21;;;;;;;56.43;19.17;;;2.70;99.90;;;0.54;100.00;99498.84;10511906;27;96599;-81
2023/12/11 16:45:26;;;;;;;58.13;19.97;;;2.70;99.90;;;0.55;100.00;99497.03;10456900;27;96543;-82
2023/12/11 16:50:30;;;;;;;63.23;22.60;;;2.70;99.90;;;0.55;100.00;99510.94;10460524;27;97002;-82
2023/12/11 16:55:33;;;;;;;63.77;23.80;;;2.70;99.90;;;0.49;100.00;99529.72;10453969;27;96636;-81
2023/12/11 17:00:37;;;;;;;52.93;18.33;;;2.60;99.90;;;0.49;100.00;99532.34;10471399;27;96559;-82
2023/12/11 17:05:41;;;;;;;65.23;21.83;;;2.60;99.90;;;0.44;100.00;99534.47;10454980;27;96622;-81
2023/12/11 17:10:45;;;;;;;74.90;26.83;;;2.60;99.90;;;0.47;100.00;99542.06;10443000;27;96884;-81
2023/12/11 17:15:48;;;;;;;59.60;18.57;;;2.60;99.90;;;0.43;100.00;99551.13;10468299;27;97018;-82
2023/12/11 17:20:52;;;;;;;52.20;19.27;;;2.50;99.90;;;0.43;100.00;99535.44;10492350;27;96570;-82
2023/12/11 17:25:55;;;;;;;59.90;20.43;;;2.50;99.90;;;0.41;100.00;99526.84;10491603;27;96532;-82
2023/12/11 17:30:59;;;;;;;52.57;20.00;;;2.50;99.90;;;0.42;100.00;99539.84;10465688;27;97172;-82
2023/12/11 17:36:03;;;;;;;54.73;18.20;;;2.50;99.90;;;0.44;100.00;99527.47;10441037;27;97994;-82
2023/12/11 17:41:08;;;;;;;68.07;21.70;;;2.50;99.90;;;0.45;100.00;99517.84;10431445;27;97065;-81
2023/12/11 17:46:12;;;;;;;74.87;18.93;;;2.60;99.90;;;0.40;100.00;99519.97;10464001;27;96531;-82
2023/12/11 17:51:16;;;;;;;63.30;18.33;;;2.50;99.90;;;0.38;100.00;99525.34;10472674;27;96834;-82
2023/12/11 17:56:19;;;;;;;72.70;20.17;;;2.50;99.90;;;0.35;100.00;99527.34;10470612;27;96752;-82
2023/12/11 18:01:23;;;;;;;80.00;21.70;;;2.50;99.90;;;0.33;100.00;99511.78;10466991;27;96607;-82
2023/12/11 18:06:26;;;;;;;83.43;23.23;;;2.50;99.90;;;0.34;100.00;99515.22;10462863;27;96560;-81
2023/12/11 18:11:30;;;;;;;93.87;22.97;;;2.50;99.90;;;0.33;100.00;99518.78;10474556;27;96527;-82
2023/12/11 18:16:34;;;;;;;69.83;18.70;;;2.50;99.90;;;0.31;100.00;99536.38;10476689;27;97669;-81
2023/12/11 18:21:39;;;;;;;56.87;16.23;;;2.40;99.90;;;0.23;100.00;99540.41;10457222;27;96465;-81
2023/12/11 18:26:44;;;;;;;61.10;16.63;;;2.40;99.90;;;0.22;100.00;99538.75;10459750;27;96525;-82
2023/12/11 18:31:48;;;;;;;62.57;15.70;;;2.30;99.90;;;0.25;100.00;99527.25;10485854;27;98017;-82
2023/12/11 18:36:51;;;;;;;41.47;13.57;;;2.30;99.90;;;0.26;100.00;99514.03;10469448;27;96560;-86
2023/12/11 18:41:55;;;;;;;53.37;15.20;;;2.40;99.90;;;0.27;100.00;99509.66;10468090;27;96551;-82
2023/12/11 18:46:59;;;;;;;51.07;15.07;;;2.40;99.90;;;0.28;100.00;99502.63;10486194;27;97549;-81
2023/12/11 18:52:03;;;;;;;58.80;18.33;;;2.40;99.90;;;0.27;100.00;99507.03;10478673;27;96539;-82
2023/12/11 18:57:07;;;;;;;66.77;19.43;;;2.40;99.90;;;0.22;100.00;99491.72;10482576;27;96475;-81
2023/12/11 19:02:11;;;;;;;81.10;21.93;;;2.40;99.90;;;0.25;100.00;99501.94;10456429;27;96566;-81
2023/12/11 19:07:16;;;;;;;66.90;20.60;;;2.40;99.90;;;0.23;100.00;99505.59;10475004;27;96511;-81
2023/12/11 19:12:19;;;;;;;55.10;19.13;;;2.40;99.90;;;0.20;100.00;99498.84;10452356;27;96496;-81
2023/12/11 19:17:22;;;;;;;64.77;21.93;;;2.40;99.90;;;0.23;100.00;99441.09;10451384;27;96610;-82
2023/12/11 19:22:26;;;;;;;84.90;26.13;;;2.40;99.90;;;0.25;100.00;99464.53;10469645;27;96519;-81
2023/12/11 19:27:29;;;;;;;69.17;23.37;;;2.40;99.90;;;0.22;100.00;99436.84;10460096;27;96802;-81
2023/12/11 19:32:33;;;;;;;56.17;19.67;;;2.40;99.90;;;0.20;100.00;99464.88;10472181;27;96531;-81
2023/12/11 19:37:37;;;;;;;59.00;20.00;;;2.30;99.90;;;0.12;100.00;99450.72;10444938;27;96551;-81
2023/12/11 19:42:41;;;;;;;65.37;21.90;;;2.30;99.90;;;0.06;100.00;99451.22;10467934;27;96882;-81
2023/12/11 19:47:47;;;;;;;55.87;18.80;;;2.20;99.90;;;0.01;100.00;99443.75;10474008;27;96543;-81
2023/12/11 19:52:51;;;;;;;55.03;17.10;;;2.20;99.90;;;0.03;100.00;99438.41;10476520;27;96726;-81
2023/12/11 19:57:54;;;;;;;59.57;19.60;;;2.10;99.90;;;-0.03;100.00;99443.16;10454545;27;96851;-81
2023/12/11 20:02:58;;;;;;;55.23;17.50;;;2.10;99.90;;;0.03;100.00;99433.19;10469551;27;96705;-81
2023/12/11 20:08:02;;;;;;;60.10;20.87;;;2.20;99.90;;;0.04;100.00;99438.28;10461012;27;96476;-81
2023/12/11 20:13:05;;;;;;;56.47;20.53;;;2.20;99.90;;;0.04;100.00;99437.44;10465693;27;96717;-80
2023/12/11 20:18:12;;;;;;;58.30;21.70;;;2.20;99.90;;;0.04;100.00;99425.22;10460275;27;96963;-81
2023/12/11 20:23:16;;;;;;;76.30;25.40;;;2.20;99.90;;;0.03;100.00;99438.41;10462933;27;96525;-80
2023/12/11 20:28:19;;;;;;;80.80;26.07;;;2.20;99.90;;;0.01;100.00;99430.69;10471341;27;96736;-80
2023/12/11 20:33:23;;;;;;;66.97;25.80;;;2.20;99.90;;;0.02;100.00;99461.09;10474325;27;96521;-80
2023/12/11 20:38:27;;;;;;;57.00;20.20;;;2.20;99.90;;;-0.01;100.00;99445.63;10472714;27;96619;-80
2023/12/11 20:43:30;;;;;;;57.30;20.80;;;2.10;99.90;;;-0.04;100.00;99430.22;10429972;27;96624;-80
2023/12/11 20:48:34;;;;;;;79.93;24.80;;;2.10;99.90;;;-0.04;100.00;99425.81;10489095;27;96747;-80